Morris, IN (47033)

9:31 AM EST on February 13, 2016 (GMT -0500)
KINBATES2 | | Change Station
CLOSE
Current Station
Personal Weather Station
Location: Batesville, IN
Elevation: 974 ft
Nearby Weather Stations

Elev 974 ft 39.29 °N, 85.23 °W | Updated 9 minutes ago

Partly Cloudy
Partly Cloudy
10.6 °F
Feels Like 11 °F
N
0.0
Wind Variable Wind from NE
Gusts 5.0 mph

Today
High -- | Low -- °F
--% Chance of Precip.
Yesterday
High -- | Low -- °F
Precip. -- in
Pressure 30.56 in
Visibility 9.0 miles
Clouds Mostly Cloudy 2800 ft
Windchill 11 °F
Dew Point 4 °F
Humidity 74%
Rainfall 0.00 in
Snow Depth Not available.
7:35 AM 6:14 PM
Waxing Crescent, 31% visible
METAR KCVG 131352Z 32009KT 9SM BKN028 M12/M16 A3051 RMK AO2 SLP346 T11171161
Pressure 30.56 in
Visibility 9.0 miles
Clouds Mostly Cloudy 2800 ft
Windchill 11 °F
Dew Point 4 °F
Humidity 74%
Rainfall 0.00 in
Snow Depth Not available.
7:35 AM 6:14 PM
Waxing Crescent, 31% visible
METAR KCVG 131352Z 32009KT 9SM BKN028 M12/M16 A3051 RMK AO2 SLP346 T11171161

10-Day Weather Forecast

Almanac

Astronomy

Feb. 13, 2016 Rise Set
Actual Time
Civil Twilight
Nautical Twilight
Astronomical Twilight
Moon
Length of Visible Light
Length of Day
Tomorrow will be .
, % of the Moon is Illuminated

Today's Extremes

State Highs State Lows

Community

WunderPhotos

Upload Photos

1,892,558 photos uploaded!

WunderBlog® & News

Nearby

Air Quality

  Air Quality AQ Index Pollutant
Not available.

Snow Depth

Station Depth Elevation

Earthquake Activity

City Distance Mag. Time & Date
Minimum magnitude displayed is 2.5.

Coastal Water Temperatures

Place Temperature

Stations

Nearby Weather Stations

Station Location Temp. Windchill Dew Point Humidity Wind Precip. Elev Updated Type
                   

Watches & Warnings

There are currently no watches in effect.